Promitheas — SYIJ — position and weather

sailwx.info

Track history (hours):
 
Tides and Currents Weather Stations Pressure Air Temp Water Temp Dewpoint Dewpoint Depression Visibility Wind Speed Wind Dir Waves Ship Positions

Promitheas

Last reported at 2016-Dec-07 21:05 UTC. Time now 2016-Dec-10 18:38 UTC.
Position N 69°03' E 033°05'.

Length 249 m; draft 14.4 m.

Type: Tanker. MMSI: 240547000.

Date/timePositionNaut miles runAvg speedWind from/ knotsBaromVisibWave heightAir tempDewpointWater temp
2016-Dec-07 21:05N 69°03' E 033°05'1 2.6
2016-Dec-07 20:32N 69°02' E 033°02'0 0.0
2016-Dec-07 19:29N 69°02' E 033°02'0 0.0
2016-Dec-06 15:29N 69°02' E 033°02'0 0.0
2016-Dec-06 14:32N 69°02' E 033°02'0 0.0
2016-Dec-06 13:26N 69°02' E 033°02'0 0.0
2016-Dec-06 12:11N 69°02' E 033°02'0 0.0
2016-Dec-06 10:29N 69°02' E 033°02'0 0.0
2016-Dec-06 09:32N 69°02' E 033°02'0 0.0
2016-Dec-06 08:26N 69°02' E 033°02'0 0.0
2016-Dec-06 07:32N 69°02' E 033°02'0 0.0
2016-Dec-06 06:29N 69°02' E 033°02'0 0.0
2016-Dec-06 05:26N 69°02' E 033°02'0 0.0
2016-Dec-06 04:29N 69°02' E 033°02'0 0.0
2016-Dec-06 03:29N 69°02' E 033°02'0 0.0
2016-Dec-06 02:29N 69°02' E 033°02'0 0.0
2016-Dec-06 01:32N 69°02' E 033°02'0 0.0
2016-Dec-06 00:32N 69°02' E 033°02'0 0.0
2016-Dec-05 23:32N 69°02' E 033°02'0 0.0
2016-Dec-05 22:08N 69°02' E 033°02'0 0.0
2016-Dec-05 20:23N 69°02' E 033°02'0 0.0
2016-Dec-05 19:32N 69°02' E 033°02'0 0.0
2016-Dec-05 18:29N 69°02' E 033°02'0 0.0
2016-Dec-05 17:08N 69°02' E 033°02'0 0.0
2016-Dec-05 16:11N 69°02' E 033°02'0 0.0
2016-Dec-05 15:26N 69°02' E 033°02'0 0.0
2016-Dec-05 14:29N 69°02' E 033°02'0 0.0
2016-Dec-05 13:32N 69°02' E 033°02'0 0.0
2016-Dec-05 12:32N 69°02' E 033°02'0 0.0
2016-Dec-05 11:26N 69°02' E 033°02'0 0.0
2016-Dec-05 10:29N 69°02' E 033°02'0 0.0
2016-Dec-05 09:32N 69°02' E 033°02'0 0.0
2016-Dec-05 08:32N 69°02' E 033°02'0 0.0
2016-Dec-05 07:32N 69°02' E 033°02'0 0.0
2016-Dec-05 06:32N 69°02' E 033°02'0 0.0
2016-Dec-05 05:05N 69°02' E 033°02'0 0.0
2016-Dec-05 04:29N 69°02' E 033°02'0 0.0
2016-Dec-05 03:32N 69°02' E 033°02'0 0.0
2016-Dec-05 02:32N 69°02' E 033°02'0 0.0
2016-Dec-05 01:29N 69°02' E 033°02'0 0.0
2016-Dec-05 00:23N 69°02' E 033°02'0 0.0
2016-Dec-04 23:29N 69°02' E 033°02'0 0.0
2016-Dec-04 22:29N 69°02' E 033°02'0 0.0
2016-Dec-04 21:32N 69°02' E 033°02'0 0.0
2016-Dec-04 20:32N 69°02' E 033°02'0 0.0
2016-Dec-04 19:32N 69°02' E 033°02'0 0.0
2016-Dec-04 18:32N 69°02' E 033°02'0 0.0
2016-Dec-04 17:29N 69°02' E 033°02'0 0.0
2016-Dec-04 16:32N 69°02' E 033°02'0 0.0
2016-Dec-04 15:33N 69°02' E 033°02'2 1.7
2016-Dec-04 14:33N 69°04' E 033°05'0 0.1
2016-Dec-04 13:33N 69°04' E 033°05'0 0.0
2016-Dec-04 12:33N 69°04' E 033°05'0 0.0
2016-Dec-04 11:33N 69°04' E 033°05'0 0.0
2016-Dec-04 10:33N 69°04' E 033°05'0 0.0
2016-Dec-04 09:33N 69°04' E 033°05'0 0.0
2016-Dec-04 08:33N 69°04' E 033°05'0 0.0
2016-Dec-04 07:33N 69°04' E 033°05'0 0.0
2016-Dec-04 06:33N 69°04' E 033°05'0 0.0
2016-Dec-04 05:33N 69°04' E 033°05'0 0.0
2016-Dec-04 04:32N 69°04' E 033°05'0 0.1
2016-Dec-04 03:33N 69°04' E 033°05'17 5.7
2016-Dec-04 00:33N 69°18' E 033°31'10 9.4
2016-Dec-03 23:32N 69°28' E 033°33'116 2.4
2016-Dec-01 23:24N 71°04' E 030°22'7 8.4
2016-Dec-01 22:33N 71°08' E 030°04'9 9.3
2016-Dec-01 21:33N 71°14' E 029°41'9 9.1
2016-Dec-01 20:33N 71°19' E 029°18'88 1.7
2016-Nov-29 17:27N 70°16' E 032°27'  
Track history (hours):
 
Tides and Currents Weather Stations Pressure Air Temp Water Temp Dewpoint Dewpoint Depression Visibility Wind Speed Wind Dir Waves Ship Positions

Promitheas

Last reported at 2016-Dec-07 21:05 UTC. Time now 2016-Dec-10 18:38 UTC.
Position N 69°03' E 033°05'.

Length 249 m; draft 14.4 m.

Type: Tanker. MMSI: 240547000.

Date/timePositionNaut miles runAvg speedWind from/ knotsBaromVisibWave heightAir tempDewpointWater temp
2016-Dec-07 21:05N 69°03' E 033°05'1 2.6
2016-Dec-07 20:32N 69°02' E 033°02'0 0.0
2016-Dec-07 19:29N 69°02' E 033°02'0 0.0
2016-Dec-06 15:29N 69°02' E 033°02'0 0.0
2016-Dec-06 14:32N 69°02' E 033°02'0 0.0
2016-Dec-06 13:26N 69°02' E 033°02'0 0.0
2016-Dec-06 12:11N 69°02' E 033°02'0 0.0
2016-Dec-06 10:29N 69°02' E 033°02'0 0.0
2016-Dec-06 09:32N 69°02' E 033°02'0 0.0
2016-Dec-06 08:26N 69°02' E 033°02'0 0.0
2016-Dec-06 07:32N 69°02' E 033°02'0 0.0
2016-Dec-06 06:29N 69°02' E 033°02'0 0.0
2016-Dec-06 05:26N 69°02' E 033°02'0 0.0
2016-Dec-06 04:29N 69°02' E 033°02'0 0.0
2016-Dec-06 03:29N 69°02' E 033°02'0 0.0
2016-Dec-06 02:29N 69°02' E 033°02'0 0.0
2016-Dec-06 01:32N 69°02' E 033°02'0 0.0
2016-Dec-06 00:32N 69°02' E 033°02'0 0.0
2016-Dec-05 23:32N 69°02' E 033°02'0 0.0
2016-Dec-05 22:08N 69°02' E 033°02'0 0.0
2016-Dec-05 20:23N 69°02' E 033°02'0 0.0
2016-Dec-05 19:32N 69°02' E 033°02'0 0.0
2016-Dec-05 18:29N 69°02' E 033°02'0 0.0
2016-Dec-05 17:08N 69°02' E 033°02'0 0.0
2016-Dec-05 16:11N 69°02' E 033°02'0 0.0
2016-Dec-05 15:26N 69°02' E 033°02'0 0.0
2016-Dec-05 14:29N 69°02' E 033°02'0 0.0
2016-Dec-05 13:32N 69°02' E 033°02'0 0.0
2016-Dec-05 12:32N 69°02' E 033°02'0 0.0
2016-Dec-05 11:26N 69°02' E 033°02'0 0.0
2016-Dec-05 10:29N 69°02' E 033°02'0 0.0
2016-Dec-05 09:32N 69°02' E 033°02'0 0.0
2016-Dec-05 08:32N 69°02' E 033°02'0 0.0
2016-Dec-05 07:32N 69°02' E 033°02'0 0.0
2016-Dec-05 06:32N 69°02' E 033°02'0 0.0
2016-Dec-05 05:05N 69°02' E 033°02'0 0.0
2016-Dec-05 04:29N 69°02' E 033°02'0 0.0
2016-Dec-05 03:32N 69°02' E 033°02'0 0.0
2016-Dec-05 02:32N 69°02' E 033°02'0 0.0
2016-Dec-05 01:29N 69°02' E 033°02'0 0.0
2016-Dec-05 00:23N 69°02' E 033°02'0 0.0
2016-Dec-04 23:29N 69°02' E 033°02'0 0.0
2016-Dec-04 22:29N 69°02' E 033°02'0 0.0
2016-Dec-04 21:32N 69°02' E 033°02'0 0.0
2016-Dec-04 20:32N 69°02' E 033°02'0 0.0
2016-Dec-04 19:32N 69°02' E 033°02'0 0.0
2016-Dec-04 18:32N 69°02' E 033°02'0 0.0
2016-Dec-04 17:29N 69°02' E 033°02'0 0.0
2016-Dec-04 16:32N 69°02' E 033°02'0 0.0
2016-Dec-04 15:33N 69°02' E 033°02'2 1.7
2016-Dec-04 14:33N 69°04' E 033°05'0 0.1
2016-Dec-04 13:33N 69°04' E 033°05'0 0.0
2016-Dec-04 12:33N 69°04' E 033°05'0 0.0
2016-Dec-04 11:33N 69°04' E 033°05'0 0.0
2016-Dec-04 10:33N 69°04' E 033°05'0 0.0
2016-Dec-04 09:33N 69°04' E 033°05'0 0.0
2016-Dec-04 08:33N 69°04' E 033°05'0 0.0
2016-Dec-04 07:33N 69°04' E 033°05'0 0.0
2016-Dec-04 06:33N 69°04' E 033°05'0 0.0
2016-Dec-04 05:33N 69°04' E 033°05'0 0.0
2016-Dec-04 04:32N 69°04' E 033°05'0 0.1
2016-Dec-04 03:33N 69°04' E 033°05'17 5.7
2016-Dec-04 00:33N 69°18' E 033°31'10 9.4
2016-Dec-03 23:32N 69°28' E 033°33'116 2.4
2016-Dec-01 23:24N 71°04' E 030°22'7 8.4
2016-Dec-01 22:33N 71°08' E 030°04'9 9.3
2016-Dec-01 21:33N 71°14' E 029°41'9 9.1
2016-Dec-01 20:33N 71°19' E 029°18'88 1.7
2016-Nov-29 17:27N 70°16' E 032°27'  

Dump ship's entire track history